Time;durP1;ratioP1;P1;durP2;ratioP2;P2;SDS_P1;SDS_P2;PMS_P1;PMS_P2;Temp;Humidity;BMP_temperature;BMP_pressure;BME280_temperature;BME280_humidity;BME280_pressure;Samples;Min_cycle;Max_cycle;Signal;HPM_P1;HPM_P2
2022/01/18 00:01:13;;;;;;;4.07;2.10;;;3.50;73.80;;;;;;5084617;28;20032;-60
2022/01/18 00:03:38;;;;;;;4.25;2.67;;;3.50;73.80;;;;;;5063486;28;20040;-59
2022/01/18 00:06:04;;;;;;;3.40;2.65;;;3.50;74.00;;;;;;5078567;28;20356;-59
2022/01/18 00:08:30;;;;;;;4.88;3.00;;;3.50;74.00;;;;;;5083333;28;20031;-58
2022/01/18 00:10:56;;;;;;;3.75;2.50;;;3.60;73.90;;;;;;5078560;28;20047;-57
2022/01/18 00:18:36;;;;;;;5.35;3.10;;;3.60;73.50;;;;;;5091335;28;20107;-59
2022/01/18 00:23:36;;;;;;;3.38;2.47;;;3.60;73.30;;;;;;5084994;28;20035;-59
2022/01/18 00:26:07;;;;;;;4.72;2.88;;;3.60;73.30;;;;;;5084235;28;20032;-59
2022/01/18 00:28:34;;;;;;;5.10;2.92;;;3.60;73.30;;;;;;5090437;28;20058;-58
2022/01/18 00:36:23;;;;;;;4.65;2.75;;;3.50;73.20;;;;;;5089483;28;19922;-59
2022/01/18 00:38:48;;;;;;;4.28;3.22;;;3.50;73.40;;;;;;5077998;28;20487;-60
2022/01/18 00:41:16;;;;;;;4.43;3.22;;;3.40;74.10;;;;;;5094726;28;20031;-59
2022/01/18 00:43:43;;;;;;;4.05;2.83;;;3.40;73.40;;;;;;5096339;28;20102;-60
2022/01/18 00:46:12;;;;;;;5.35;3.00;;;3.40;73.30;;;;;;5096461;28;20020;-59
2022/01/18 00:48:38;;;;;;;3.38;2.47;;;3.30;73.30;;;;;;5092882;28;20467;-57
2022/01/18 00:51:06;;;;;;;2.50;2.30;;;3.30;73.50;;;;;;5087654;28;20032;-59
2022/01/18 00:53:35;;;;;;;3.08;2.38;;;3.30;73.80;;;;;;5090472;28;20031;-58
2022/01/18 00:56:38;;;;;;;2.40;2.20;;;3.20;73.60;;;;;;5083699;28;20021;-60
2022/01/18 00:58:53;;;;;;;;;;;3.20;73.80;;;;;;5086264;28;20397;-58
2022/01/18 01:01:21;;;;;;;2.25;2.15;;;3.10;74.10;;;;;;5092966;28;19904;-59
2022/01/18 01:03:47;;;;;;;2.30;2.10;;;3.10;74.20;;;;;;5095910;28;20020;-59
2022/01/18 01:06:13;;;;;;;3.72;2.40;;;3.20;74.40;;;;;;5084893;28;20032;-58
2022/01/18 01:08:39;;;;;;;2.72;2.20;;;3.20;74.50;;;;;;5089719;28;20035;-59
2022/01/18 01:11:06;;;;;;;3.15;2.55;;;3.20;74.50;;;;;;5065699;28;20036;-59
2022/01/18 01:13:33;;;;;;;4.65;2.88;;;3.20;74.70;;;;;;5078289;28;20035;-56
2022/01/18 01:45:28;;;;;;;4.13;2.30;;;3.50;75.00;;;;;;5083304;28;20039;-58
2022/01/18 01:47:55;;;;;;;4.32;2.65;;;3.50;75.00;;;;;;5094248;28;20077;-60
2022/01/18 01:50:24;;;;;;;4.32;3.00;;;3.50;74.90;;;;;;5093009;28;20391;-58
2022/01/18 01:52:54;;;;;;;5.07;3.40;;;3.40;75.00;;;;;;5093240;28;20142;-57
2022/01/18 01:55:21;;;;;;;4.50;3.22;;;3.40;75.20;;;;;;5093746;28;20028;-60
2022/01/18 01:57:47;;;;;;;3.65;2.90;;;3.40;75.30;;;;;;5094464;28;20108;-60
2022/01/18 02:00:18;;;;;;;3.10;2.70;;;3.40;75.40;;;;;;5087589;28;20498;-60
2022/01/18 02:02:44;;;;;;;2.85;2.58;;;3.40;75.40;;;;;;5086477;28;20042;-59
2022/01/18 02:05:10;;;;;;;4.95;3.10;;;3.40;75.30;;;;;;5086300;28;20024;-59
2022/01/18 02:07:36;;;;;;;3.15;2.63;;;3.40;75.40;;;;;;5093736;28;20480;-59
2022/01/18 02:10:04;;;;;;;2.58;2.30;;;3.40;75.30;;;;;;5093574;28;20391;-60
2022/01/18 02:12:30;;;;;;;3.13;2.60;;;3.40;75.30;;;;;;5094449;28;20031;-60
2022/01/18 02:14:59;;;;;;;3.05;2.40;;;3.40;75.30;;;;;;5094589;28;20020;-59
2022/01/18 02:22:56;;;;;;;2.40;2.20;;;3.50;75.50;;;;;;5093760;28;20544;-60
2022/01/18 02:25:23;;;;;;;3.63;2.70;;;3.50;75.60;;;;;;5094384;28;20028;-59
2022/01/18 02:27:50;;;;;;;2.47;2.28;;;3.40;76.10;;;;;;5091340;28;20026;-59
2022/01/18 02:30:16;;;;;;;3.78;2.47;;;3.50;76.60;;;;;;5091901;28;20369;-58
2022/01/18 02:32:41;;;;;;;2.88;2.55;;;3.40;77.00;;;;;;5092841;28;20027;-60
2022/01/18 02:35:08;;;;;;;4.50;2.70;;;3.40;77.10;;;;;;5086271;28;20066;-59
2022/01/18 02:37:33;;;;;;;2.95;2.50;;;3.40;77.60;;;;;;5082956;28;20503;-59
2022/01/18 02:39:59;;;;;;;2.70;2.50;;;3.40;78.00;;;;;;5079020;28;20020;-59
2022/01/18 02:42:30;;;;;;;3.35;2.80;;;3.30;78.20;;;;;;5092826;28;20031;-58
2022/01/18 02:44:56;;;;;;;3.65;2.72;;;3.30;78.50;;;;;;5093980;28;20119;-59
2022/01/18 02:47:23;;;;;;;3.15;2.85;;;3.40;78.70;;;;;;5083854;28;20111;-58
2022/01/18 02:49:49;;;;;;;3.53;3.20;;;3.30;79.00;;;;;;5087771;28;20028;-58
2022/01/18 02:52:16;;;;;;;2.95;2.33;;;3.30;79.40;;;;;;5090458;28;20040;-59
2022/01/18 02:54:42;;;;;;;3.00;2.03;;;3.20;79.50;;;;;;5076243;28;20032;-60
2022/01/18 02:57:12;;;;;;;2.17;1.80;;;3.00;79.50;;;;;;5091588;28;20384;-58
2022/01/18 02:59:56;;;;;;;6.93;1.63;;;2.60;80.10;;;;;;5074933;28;20032;-58
2022/01/18 03:05:15;;;;;;;3.25;2.00;;;1.80;83.50;;;;;;5045378;28;20491;-59
2022/01/18 03:07:42;;;;;;;2.00;1.90;;;1.40;84.70;;;;;;5085409;28;20594;-59
2022/01/18 03:10:10;;;;;;;2.20;2.00;;;1.20;85.40;;;;;;5089460;28;20028;-59
2022/01/18 03:12:36;;;;;;;2.13;2.03;;;1.00;85.70;;;;;;5084721;28;20088;-59
2022/01/18 03:15:01;;;;;;;2.40;2.20;;;0.80;85.40;;;;;;5085817;28;20111;-57
2022/01/18 03:17:27;;;;;;;2.20;2.10;;;0.70;85.60;;;;;;5093354;28;20020;-59
2022/01/18 03:19:53;;;;;;;3.40;2.20;;;0.60;85.70;;;;;;5093201;28;20050;-59
2022/01/18 03:22:19;;;;;;;2.97;1.95;;;0.50;86.00;;;;;;5092942;28;20020;-59
2022/01/18 03:25:24;;;;;;;2.20;2.00;;;0.50;86.00;;;;;;5089126;28;20035;-57
2022/01/18 03:28:07;;;;;;;3.33;1.95;;;0.40;86.30;;;;;;5082569;28;20429;-59
2022/01/18 03:30:36;;;;;;;2.10;2.00;;;0.40;86.50;;;;;;5075557;28;20025;-59
2022/01/18 03:33:04;;;;;;;2.00;1.90;;;0.40;86.90;;;;;;5086330;28;20024;-58
2022/01/18 03:35:30;;;;;;;3.65;2.15;;;0.40;87.10;;;;;;5092983;28;20482;-59
2022/01/18 03:37:56;;;;;;;3.22;2.30;;;0.40;87.50;;;;;;5085682;28;20039;-57
2022/01/18 03:40:22;;;;;;;2.42;2.22;;;0.40;87.40;;;;;;5082525;28;20470;-58
2022/01/18 03:42:49;;;;;;;3.10;2.55;;;0.40;87.10;;;;;;5089364;28;20483;-59
2022/01/18 03:45:24;;;;;;;4.35;2.22;;;0.40;87.10;;;;;;5080997;28;20063;-57
2022/01/18 03:47:50;;;;;;;2.40;2.20;;;0.50;86.80;;;;;;5085784;28;20480;-57
2022/01/18 03:50:16;;;;;;;2.22;2.13;;;0.40;86.10;;;;;;5088060;28;20028;-58
2022/01/18 03:52:43;;;;;;;2.35;2.00;;;0.50;85.90;;;;;;5091670;28;20446;-59
2022/01/18 03:55:11;;;;;;;2.92;2.00;;;0.40;85.60;;;;;;5091969;28;20024;-59
2022/01/18 03:57:37;;;;;;;2.33;2.08;;;0.40;85.40;;;;;;5084455;28;20032;-58
2022/01/18 04:00:05;;;;;;;2.20;2.00;;;0.50;85.40;;;;;;5088596;28;20365;-58
2022/01/18 04:02:32;;;;;;;3.45;2.10;;;0.50;85.00;;;;;;5082812;28;20074;-58
2022/01/18 04:04:57;;;;;;;2.40;2.00;;;0.50;84.60;;;;;;5088030;28;20060;-59
2022/01/18 04:07:23;;;;;;;2.85;1.83;;;0.50;84.60;;;;;;5081093;28;20492;-59
2022/01/18 04:09:49;;;;;;;5.13;2.25;;;0.50;84.60;;;;;;5079968;28;20027;-59
2022/01/18 04:12:14;;;;;;;3.42;2.10;;;0.50;84.80;;;;;;5084936;28;20028;-59
2022/01/18 04:14:40;;;;;;;3.97;2.10;;;0.50;85.20;;;;;;5092373;28;20024;-58
2022/01/18 04:17:18;;;;;;;5.47;2.28;;;0.40;85.00;;;;;;5091982;28;20031;-59
2022/01/18 04:27:54;;;;;;;3.75;2.20;;;-0.30;87.90;;;;;;5091497;28;20416;-59
2022/01/18 04:30:21;;;;;;;2.10;1.80;;;-0.40;88.00;;;;;;5073012;28;20388;-59
2022/01/18 04:32:47;;;;;;;2.25;1.90;;;-0.50;88.20;;;;;;5091466;28;20028;-58
2022/01/18 04:35:13;;;;;;;2.10;1.90;;;-0.50;87.20;;;;;;5080966;28;20085;-58
2022/01/18 04:37:38;;;;;;;2.25;2.13;;;-0.50;87.10;;;;;;5087309;28;20051;-55
2022/01/18 04:40:11;;;;;;;13.75;2.60;;;-0.50;86.70;;;;;;5091796;28;20081;-57
2022/01/18 04:50:46;;;;;;;3.80;2.10;;;-0.70;84.50;;;;;;5090972;28;20498;-59
2022/01/18 04:53:12;;;;;;;2.70;2.10;;;-0.80;84.40;;;;;;5077911;28;20036;-57
2022/01/18 04:55:38;;;;;;;3.97;2.03;;;-0.80;84.20;;;;;;5081805;28;20063;-59
2022/01/18 04:58:03;;;;;;;3.67;2.03;;;-0.90;84.30;;;;;;5092378;28;20480;-58
2022/01/18 05:00:29;;;;;;;2.13;2.00;;;-0.90;83.90;;;;;;5068796;28;20028;-57
2022/01/18 05:02:55;;;;;;;1.83;1.77;;;-0.90;82.80;;;;;;5081570;28;20028;-59
2022/01/18 05:05:26;;;;;;;2.20;2.00;;;-0.90;82.20;;;;;;5087006;28;20103;-59
2022/01/18 05:07:53;;;;;;;2.10;2.00;;;-0.90;81.70;;;;;;5085365;28;20039;-58
2022/01/18 05:10:25;;;;;;;3.58;2.38;;;-0.90;81.40;;;;;;5089275;28;20032;-59
2022/01/18 05:12:53;;;;;;;2.00;1.90;;;-0.90;81.10;;;;;;5075941;28;20035;-59
2022/01/18 05:23:06;;;;;;;1.90;1.80;;;-0.80;79.90;;;;;;5092289;28;20056;-59
2022/01/18 05:25:33;;;;;;;1.98;1.80;;;-0.80;79.50;;;;;;5092449;28;20021;-59
2022/01/18 05:28:00;;;;;;;3.13;2.00;;;-0.80;78.80;;;;;;5087683;28;20376;-58
2022/01/18 05:30:27;;;;;;;2.08;1.98;;;-0.80;78.00;;;;;;5095670;28;20020;-57
2022/01/18 05:32:53;;;;;;;2.00;1.90;;;-0.80;77.80;;;;;;5087369;28;20029;-58
2022/01/18 05:35:20;;;;;;;2.42;2.03;;;-0.80;77.40;;;;;;5095506;28;20043;-58
2022/01/18 05:37:47;;;;;;;2.30;2.13;;;-0.80;77.60;;;;;;5083740;28;20024;-59
2022/01/18 05:40:13;;;;;;;2.05;1.95;;;-0.80;77.10;;;;;;5077254;28;20360;-57
2022/01/18 05:42:39;;;;;;;2.22;2.03;;;-0.80;77.00;;;;;;5089924;28;20035;-58
2022/01/18 05:45:06;;;;;;;2.20;2.10;;;-0.80;77.00;;;;;;5089108;28;20016;-59
2022/01/18 05:47:33;;;;;;;2.13;2.00;;;-0.80;76.80;;;;;;5094813;28;20028;-58
2022/01/18 05:49:59;;;;;;;3.90;2.17;;;-0.80;76.50;;;;;;5095386;28;20024;-59
2022/01/18 05:52:24;;;;;;;2.95;2.03;;;-0.80;76.30;;;;;;5083923;28;20038;-57
2022/01/18 05:54:50;;;;;;;5.00;2.25;;;-0.80;76.60;;;;;;5082268;28;20028;-58
2022/01/18 05:57:16;;;;;;;3.85;2.05;;;-0.70;76.30;;;;;;5083108;28;20558;-59
2022/01/18 05:59:45;;;;;;;2.63;2.10;;;-0.70;75.80;;;;;;5092446;28;20048;-58
2022/01/18 06:02:17;;;;;;;2.22;2.10;;;-0.80;75.80;;;;;;5086246;28;20020;-58
2022/01/18 06:07:28;;;;;;;2.22;2.03;;;-0.70;75.80;;;;;;5087823;28;20129;-59
2022/01/18 06:09:56;;;;;;;1.90;1.80;;;-0.70;75.70;;;;;;5095219;28;20048;-59
2022/01/18 06:12:23;;;;;;;4.53;2.28;;;-0.70;75.90;;;;;;5080848;28;20759;-60
2022/01/18 06:14:48;;;;;;;2.95;2.00;;;-0.70;75.60;;;;;;5084003;28;20027;-60
2022/01/18 06:17:14;;;;;;;2.00;1.90;;;-0.70;75.30;;;;;;5083280;28;20028;-59
2022/01/18 06:19:40;;;;;;;2.03;1.92;;;-0.70;75.20;;;;;;5083961;28;20033;-59
2022/01/18 06:22:05;;;;;;;2.10;1.98;;;-0.70;75.30;;;;;;5085116;28;20116;-59
2022/01/18 06:24:31;;;;;;;2.17;2.08;;;-0.60;75.30;;;;;;5085944;28;20047;-57
2022/01/18 06:26:57;;;;;;;2.58;2.03;;;-0.60;75.50;;;;;;5091007;28;20523;-59
2022/01/18 06:29:22;;;;;;;2.10;2.00;;;-0.60;75.40;;;;;;5094370;28;20031;-57
2022/01/18 06:31:49;;;;;;;2.08;1.98;;;-0.60;75.40;;;;;;5087037;28;20036;-59
2022/01/18 06:34:15;;;;;;;3.10;2.10;;;-0.50;75.70;;;;;;5085166;28;20032;-59
2022/01/18 06:36:41;;;;;;;2.30;1.83;;;-0.50;75.70;;;;;;5088347;28;20028;-59
2022/01/18 06:39:07;;;;;;;2.22;2.00;;;-0.50;75.90;;;;;;5086939;28;20027;-60
2022/01/18 06:41:33;;;;;;;3.17;2.20;;;-0.50;76.10;;;;;;5090372;28;20020;-59
2022/01/18 06:43:59;;;;;;;2.20;1.92;;;-0.50;76.30;;;;;;5086532;28;20027;-59
2022/01/18 06:46:25;;;;;;;2.05;1.95;;;-0.50;76.60;;;;;;5080476;28;20607;-60
2022/01/18 06:48:51;;;;;;;2.10;2.00;;;-0.50;76.50;;;;;;5076140;28;20043;-59
2022/01/18 06:51:16;;;;;;;2.10;2.00;;;-0.50;76.60;;;;;;5088728;28;20024;-59
2022/01/18 06:53:47;;;;;;;2.20;2.00;;;-0.50;76.70;;;;;;5085803;28;20105;-60
2022/01/18 06:56:18;;;;;;;2.47;2.28;;;-0.50;76.70;;;;;;5079832;28;20506;-57
2022/01/18 06:58:44;;;;;;;4.72;2.17;;;-0.50;77.00;;;;;;5073012;28;20020;-60
2022/01/18 07:01:12;;;;;;;2.88;1.70;;;-0.50;77.10;;;;;;5076577;28;20077;-60
2022/01/18 07:03:38;;;;;;;2.85;2.20;;;-0.50;77.30;;;;;;5074437;28;20035;-59
2022/01/18 07:06:04;;;;;;;2.53;1.95;;;-0.50;77.60;;;;;;5067900;28;23187;-61
2022/01/18 07:08:32;;;;;;;3.13;1.80;;;-0.50;77.50;;;;;;5075952;28;20035;-59
2022/01/18 07:10:58;;;;;;;4.55;2.17;;;-0.50;77.70;;;;;;5060309;28;20621;-61
2022/01/18 07:13:24;;;;;;;2.85;2.13;;;-0.40;77.90;;;;;;5078723;28;20057;-59
2022/01/18 07:15:50;;;;;;;2.63;2.33;;;-0.30;78.20;;;;;;5083272;28;20356;-60
2022/01/18 07:18:16;;;;;;;2.90;1.90;;;-0.30;77.80;;;;;;5076078;28;20046;-59
2022/01/18 07:20:42;;;;;;;2.28;1.90;;;-0.40;78.10;;;;;;5075257;28;20076;-60
2022/01/18 07:23:11;;;;;;;2.97;1.80;;;-0.40;78.50;;;;;;5057673;28;20345;-60
2022/01/18 07:25:42;;;;;;;1.95;1.77;;;-0.40;78.70;;;;;;5076650;28;20024;-59
2022/01/18 07:28:12;;;;;;;1.98;1.88;;;-0.30;78.70;;;;;;5076444;28;20027;-61
2022/01/18 07:30:38;;;;;;;3.20;2.00;;;-0.40;78.60;;;;;;5069108;28;20025;-60
2022/01/18 07:33:05;;;;;;;2.28;2.08;;;-0.30;78.80;;;;;;5070853;28;20032;-59
2022/01/18 07:35:33;;;;;;;2.33;2.08;;;-0.30;78.60;;;;;;5080417;28;20032;-59
2022/01/18 07:38:00;;;;;;;2.47;2.10;;;-0.30;78.60;;;;;;5080618;28;20032;-58
2022/01/18 07:40:28;;;;;;;2.40;2.20;;;-0.30;78.40;;;;;;5073815;28;20021;-58
2022/01/18 07:42:54;;;;;;;2.33;2.13;;;-0.30;77.70;;;;;;5075171;28;20081;-59
2022/01/18 07:45:23;;;;;;;2.25;2.10;;;-0.20;77.30;;;;;;5077582;28;20031;-58
2022/01/18 07:47:49;;;;;;;2.70;2.28;;;-0.20;77.00;;;;;;5073591;28;20111;-61
2022/01/18 07:50:16;;;;;;;3.03;2.10;;;-0.20;76.80;;;;;;5067744;28;20063;-58
2022/01/18 07:52:41;;;;;;;1.85;1.75;;;-0.10;76.40;;;;;;5076121;28;20309;-59
2022/01/18 07:55:08;;;;;;;3.63;2.25;;;-0.10;76.30;;;;;;5072101;28;20077;-60
2022/01/18 07:57:34;;;;;;;1.92;1.80;;;-0.10;75.90;;;;;;5071174;28;20379;-58
2022/01/18 08:00:00;;;;;;;2.30;2.10;;;-0.10;75.30;;;;;;5071406;28;20028;-57
2022/01/18 08:02:25;;;;;;;2.33;2.13;;;0.00;75.10;;;;;;5064776;28;20028;-59
2022/01/18 08:04:51;;;;;;;2.50;2.30;;;0.00;74.40;;;;;;5065620;28;20039;-59
2022/01/18 08:07:17;;;;;;;2.92;2.03;;;0.00;74.00;;;;;;5070167;28;20040;-61
2022/01/18 08:09:43;;;;;;;2.40;2.20;;;0.00;73.40;;;;;;5044955;28;20456;-60
2022/01/18 08:12:09;;;;;;;2.55;2.30;;;0.00;72.80;;;;;;5065143;28;20114;-59
2022/01/18 08:14:35;;;;;;;2.63;2.13;;;0.00;72.80;;;;;;5069740;28;20028;-59
2022/01/18 08:17:05;;;;;;;2.47;2.03;;;0.00;72.50;;;;;;5064504;28;21555;-58
2022/01/18 08:19:34;;;;;;;2.08;1.90;;;0.10;72.50;;;;;;5065383;28;20028;-61
2022/01/18 08:22:00;;;;;;;2.67;1.92;;;0.10;72.20;;;;;;5061283;28;20134;-61
2022/01/18 08:24:26;;;;;;;2.90;1.92;;;0.20;71.90;;;;;;5067541;28;20035;-58
2022/01/18 08:26:52;;;;;;;3.88;2.10;;;0.20;71.50;;;;;;5065413;28;20036;-59
2022/01/18 08:29:18;;;;;;;2.10;1.90;;;0.20;71.60;;;;;;5071089;28;20036;-60
2022/01/18 08:31:45;;;;;;;1.90;1.80;;;0.30;71.70;;;;;;5063933;28;20028;-61
2022/01/18 08:34:12;;;;;;;2.40;2.15;;;0.30;71.40;;;;;;5046320;28;20028;-60
2022/01/18 08:36:38;;;;;;;1.92;1.80;;;0.30;71.40;;;;;;5047678;28;20124;-59
2022/01/18 08:39:04;;;;;;;2.20;1.75;;;0.30;71.30;;;;;;5070315;28;20111;-58
2022/01/18 08:41:31;;;;;;;2.78;2.05;;;0.40;71.40;;;;;;5069833;28;20107;-59
2022/01/18 08:43:57;;;;;;;2.67;2.38;;;0.40;71.20;;;;;;5061588;28;20035;-58
2022/01/18 08:46:23;;;;;;;2.10;1.88;;;0.40;71.10;;;;;;5063777;28;20028;-59
2022/01/18 08:48:49;;;;;;;2.97;2.30;;;0.40;71.00;;;;;;5067888;28;20043;-60
2022/01/18 08:51:16;;;;;;;2.20;2.10;;;0.40;71.10;;;;;;5066960;28;20118;-60
2022/01/18 08:53:48;;;;;;;2.42;2.17;;;0.40;71.10;;;;;;5063132;28;20063;-59
2022/01/18 08:56:17;;;;;;;1.90;1.80;;;0.30;71.20;;;;;;5061186;28;20643;-58
2022/01/18 08:58:44;;;;;;;4.18;2.10;;;0.30;71.40;;;;;;5060675;28;20111;-61
2022/01/18 09:01:12;;;;;;;2.10;1.92;;;0.30;71.30;;;;;;5066667;28;20036;-59
2022/01/18 09:03:38;;;;;;;2.13;1.80;;;0.20;71.20;;;;;;5065906;28;20059;-58
2022/01/18 09:06:05;;;;;;;2.35;2.15;;;0.20;71.10;;;;;;5066678;28;20111;-59
2022/01/18 09:08:33;;;;;;;2.78;2.13;;;0.20;71.50;;;;;;5071712;28;20644;-60
2022/01/18 09:10:59;;;;;;;2.05;1.88;;;0.20;70.90;;;;;;5072594;28;20095;-60
2022/01/18 09:13:25;;;;;;;2.03;1.92;;;0.30;70.80;;;;;;5067154;28;20825;-57
2022/01/18 09:15:51;;;;;;;3.85;2.10;;;0.30;70.60;;;;;;5050257;28;20036;-57
2022/01/18 09:18:18;;;;;;;4.68;2.13;;;0.30;70.00;;;;;;5067369;28;20029;-58
2022/01/18 09:20:44;;;;;;;2.47;2.05;;;0.30;69.80;;;;;;5063965;28;20037;-58
2022/01/18 09:23:11;;;;;;;4.43;2.35;;;0.20;70.00;;;;;;5063914;28;20029;-59
2022/01/18 09:25:36;;;;;;;10.35;2.53;;;0.20;69.80;;;;;;5068704;28;20036;-60
2022/01/18 09:28:04;;;;;;;5.20;2.15;;;0.10;69.60;;;;;;5048377;28;20032;-58
2022/01/18 09:30:32;;;;;;;3.30;1.90;;;0.10;69.30;;;;;;5065246;28;20067;-58
2022/01/18 09:32:59;;;;;;;2.40;2.03;;;0.00;69.60;;;;;;5062073;28;20672;-58
2022/01/18 09:35:25;;;;;;;2.38;2.17;;;0.10;69.70;;;;;;5073130;28;20184;-59
2022/01/18 09:37:51;;;;;;;2.13;1.92;;;0.10;69.00;;;;;;5070731;28;20062;-61
2022/01/18 09:40:19;;;;;;;2.00;1.90;;;0.10;69.00;;;;;;5069838;28;20035;-59
2022/01/18 09:42:53;;;;;;;3.05;2.20;;;0.20;68.80;;;;;;5070582;28;20024;-58
2022/01/18 09:45:19;;;;;;;2.08;1.92;;;0.30;68.40;;;;;;5050315;28;20024;-61
2022/01/18 09:47:47;;;;;;;2.03;1.90;;;0.30;68.00;;;;;;5066707;28;20040;-59
2022/01/18 09:50:21;;;;;;;2.47;2.08;;;0.40;67.70;;;;;;5064960;28;21135;-59
2022/01/18 09:52:52;;;;;;;2.00;1.90;;;0.50;67.40;;;;;;5068417;28;20028;-59
2022/01/18 09:55:18;;;;;;;2.45;2.13;;;0.50;67.10;;;;;;5062559;28;20144;-59
2022/01/18 09:57:44;;;;;;;2.33;2.05;;;0.60;67.00;;;;;;5071901;28;20028;-60
2022/01/18 10:00:10;;;;;;;2.17;1.80;;;0.70;66.40;;;;;;5074762;28;20699;-58
2022/01/18 10:02:36;;;;;;;2.70;2.05;;;0.70;65.90;;;;;;5069423;28;20153;-57
2022/01/18 10:05:26;;;;;;;7.07;2.00;;;0.70;65.70;;;;;;5069841;28;20028;-57
2022/01/18 10:08:13;;;;;;;5.15;2.33;;;0.70;65.00;;;;;;5069245;28;20735;-57
2022/01/18 10:10:49;;;;;;;2.50;2.00;;;0.70;64.30;;;;;;5072617;28;20756;-60
2022/01/18 10:13:21;;;;;;;1.92;1.83;;;0.70;64.90;;;;;;5069476;28;20032;-60
2022/01/18 10:16:07;;;;;;;1.92;1.83;;;0.80;65.40;;;;;;5069163;28;20051;-60
2022/01/18 10:18:43;;;;;;;2.20;2.10;;;0.80;65.50;;;;;;5063343;28;20060;-58
2022/01/18 10:21:09;;;;;;;2.20;1.85;;;0.90;65.70;;;;;;5067095;28;20052;-57
2022/01/18 10:23:36;;;;;;;1.85;1.75;;;0.80;65.80;;;;;;5069962;28;20791;-57
2022/01/18 10:26:16;;;;;;;3.50;2.17;;;0.80;65.90;;;;;;5065327;28;20059;-58
2022/01/18 10:28:42;;;;;;;1.80;1.70;;;0.80;66.40;;;;;;5068406;28;20043;-57
2022/01/18 10:31:41;;;;;;;2.28;2.08;;;0.70;66.60;;;;;;5070212;28;20028;-60
2022/01/18 10:34:20;;;;;;;1.90;1.80;;;0.80;66.40;;;;;;5066258;28;20028;-60
2022/01/18 10:37:35;;;;;;;3.45;2.00;;;0.70;66.70;;;;;;5067884;28;20032;-58
2022/01/18 10:40:03;;;;;;;3.85;1.90;;;0.70;66.80;;;;;;4993773;28;20385;-57
2022/01/18 10:42:44;;;;;;;3.25;2.22;;;0.70;66.80;;;;;;5049159;28;20039;-58
2022/01/18 10:45:19;;;;;;;2.20;2.10;;;0.70;67.50;;;;;;5067404;28;20016;-57
2022/01/18 10:47:52;;;;;;;4.20;1.90;;;0.80;68.00;;;;;;5063352;28;20129;-60
2022/01/18 10:50:19;;;;;;;2.15;2.05;;;0.70;68.50;;;;;;5061287;28;20040;-60
2022/01/18 10:52:46;;;;;;;2.03;1.92;;;0.70;68.30;;;;;;5061026;28;20044;-60
2022/01/18 10:55:18;;;;;;;2.28;2.08;;;0.70;68.00;;;;;;5066017;28;20154;-59
2022/01/18 10:57:45;;;;;;;2.25;1.80;;;0.80;68.00;;;;;;5064982;28;20544;-59
2022/01/18 11:00:16;;;;;;;6.90;2.10;;;0.70;67.80;;;;;;5060575;28;20312;-58
2022/01/18 11:02:44;;;;;;;2.53;2.22;;;0.80;67.70;;;;;;5041947;28;20041;-59
2022/01/18 11:05:23;;;;;;;3.60;2.30;;;0.70;67.80;;;;;;5066572;28;20031;-60
2022/01/18 11:07:50;;;;;;;4.20;2.47;;;0.70;68.50;;;;;;5061303;28;20045;-59
2022/01/18 11:10:18;;;;;;;3.03;2.20;;;0.80;69.10;;;;;;5064141;28;20037;-59
2022/01/18 11:12:56;;;;;;;3.05;2.35;;;0.70;68.80;;;;;;5066435;28;20495;-59
2022/01/18 11:15:24;;;;;;;1.88;1.77;;;0.70;68.70;;;;;;5073265;28;20075;-59
2022/01/18 11:17:57;;;;;;;2.38;2.17;;;0.70;68.50;;;;;;5067211;28;20420;-59
2022/01/18 11:20:24;;;;;;;1.83;1.73;;;0.70;68.30;;;;;;5062528;28;20048;-57
2022/01/18 11:22:51;;;;;;;4.53;2.00;;;0.60;68.00;;;;;;5061554;28;20028;-59
2022/01/18 11:25:19;;;;;;;2.83;1.75;;;0.70;68.10;;;;;;5066159;28;20020;-58
2022/01/18 11:27:49;;;;;;;2.28;2.08;;;0.70;68.10;;;;;;5059019;28;20028;-60
2022/01/18 11:30:17;;;;;;;2.28;2.10;;;0.70;67.80;;;;;;5067692;28;20036;-60
2022/01/18 11:32:44;;;;;;;3.17;1.83;;;0.80;67.80;;;;;;5063535;28;20599;-59
2022/01/18 11:35:15;;;;;;;2.20;2.00;;;0.80;67.80;;;;;;5062580;28;20039;-59
2022/01/18 11:37:57;;;;;;;2.53;2.33;;;0.80;67.70;;;;;;5068170;28;20046;-60
2022/01/18 11:40:23;;;;;;;2.30;1.80;;;0.80;67.50;;;;;;5066166;28;20055;-58
2022/01/18 11:42:53;;;;;;;1.90;1.80;;;0.80;67.50;;;;;;5063712;28;20032;-59
2022/01/18 11:45:24;;;;;;;2.08;1.98;;;0.80;67.60;;;;;;5061943;28;20378;-57
2022/01/18 11:48:00;;;;;;;2.38;2.17;;;0.90;67.10;;;;;;5066564;28;20032;-57
2022/01/18 11:50:31;;;;;;;3.05;1.98;;;0.80;66.70;;;;;;5069179;28;20090;-57
2022/01/18 11:54:18;;;;;;;2.58;2.20;;;0.90;66.90;;;;;;5062440;28;20499;-57
2022/01/18 11:56:40;;;;;;;2.85;2.05;;;0.80;66.50;;;;;;5053233;28;20040;-57
2022/01/18 11:59:17;;;;;;;2.60;2.30;;;0.70;66.90;;;;;;5058891;28;20656;-60
2022/01/18 12:01:52;;;;;;;3.25;2.10;;;0.70;66.90;;;;;;5060845;28;20027;-60
2022/01/18 12:04:36;;;;;;;3.33;2.40;;;0.80;66.80;;;;;;5068328;28;20078;-58
2022/01/18 12:07:02;;;;;;;2.53;2.30;;;0.80;66.20;;;;;;5066118;28;20798;-60
2022/01/18 12:09:48;;;;;;;2.70;2.00;;;0.80;66.30;;;;;;5062453;28;20051;-60
2022/01/18 12:12:52;;;;;;;2.20;2.10;;;0.80;66.00;;;;;;5056577;28;20850;-60
2022/01/18 12:15:18;;;;;;;2.20;2.00;;;0.80;66.10;;;;;;5058498;28;20485;-59
2022/01/18 12:17:54;;;;;;;3.08;2.30;;;0.70;66.50;;;;;;5065187;28;20020;-59
2022/01/18 12:20:32;;;;;;;3.03;2.28;;;0.70;66.80;;;;;;5064798;28;20036;-59
2022/01/18 12:23:00;;;;;;;2.53;2.33;;;0.70;67.20;;;;;;5064556;28;20020;-58
2022/01/18 12:25:28;;;;;;;3.25;2.60;;;0.60;67.80;;;;;;5060430;28;20032;-59
2022/01/18 12:27:55;;;;;;;2.10;1.90;;;0.50;68.30;;;;;;5070883;28;20376;-59
2022/01/18 12:30:53;;;;;;;3.83;2.22;;;0.40;68.20;;;;;;5070327;28;20503;-58
2022/01/18 12:33:20;;;;;;;2.20;2.00;;;0.40;68.70;;;;;;5065832;28;20039;-58
2022/01/18 12:35:47;;;;;;;4.95;2.22;;;0.30;68.50;;;;;;5067323;28;20982;-59
2022/01/18 12:38:23;;;;;;;4.70;2.40;;;0.40;68.40;;;;;;5062829;28;21605;-58
2022/01/18 12:40:49;;;;;;;4.53;2.25;;;0.40;68.50;;;;;;5065888;28;20081;-60
2022/01/18 12:46:20;;;;;;;2.80;2.45;;;0.30;69.70;;;;;;5002939;28;20120;-59
2022/01/18 12:48:46;;;;;;;4.43;2.13;;;0.30;69.80;;;;;;5052089;28;20044;-57
2022/01/18 12:51:16;;;;;;;3.22;2.30;;;0.20;69.70;;;;;;5052939;28;20081;-60
2022/01/18 12:53:47;;;;;;;2.10;2.00;;;0.30;69.80;;;;;;5062216;28;20598;-59
2022/01/18 12:56:12;;;;;;;2.10;1.90;;;0.30;69.50;;;;;;5059943;28;20060;-59
2022/01/18 12:58:41;;;;;;;2.40;2.20;;;0.30;69.00;;;;;;5059989;28;20032;-62
2022/01/18 13:01:08;;;;;;;2.15;1.90;;;0.30;68.70;;;;;;5048987;28;20027;-60
2022/01/18 13:03:38;;;;;;;4.85;2.42;;;0.30;68.80;;;;;;5058624;28;20029;-61
2022/01/18 13:06:10;;;;;;;2.05;1.95;;;0.30;68.70;;;;;;5049178;28;20717;-61
2022/01/18 13:08:44;;;;;;;3.25;2.03;;;0.40;68.70;;;;;;5051547;28;20028;-62
2022/01/18 13:11:12;;;;;;;2.20;2.00;;;0.40;68.60;;;;;;5062831;28;20046;-61
2022/01/18 13:13:37;;;;;;;2.13;1.92;;;0.40;68.60;;;;;;5069404;28;20040;-60
2022/01/18 13:27:03;;;;;;;6.97;2.58;;;0.50;68.70;;;;;;5065497;28;20032;-61
2022/01/18 13:29:30;;;;;;;5.13;2.75;;;0.50;69.50;;;;;;5065982;28;20127;-61
2022/01/18 13:32:32;;;;;;;2.47;2.28;;;0.50;71.00;;;;;;5069917;28;20502;-61
2022/01/18 13:35:00;;;;;;;;;;;0.40;73.00;;;;;;5031259;28;20039;-58
2022/01/18 13:37:30;;;;;;;2.30;2.10;;;0.20;74.20;;;;;;5060463;28;20479;-61
2022/01/18 13:39:59;;;;;;;2.50;2.20;;;0.20;73.40;;;;;;5061381;28;20476;-57
2022/01/18 13:42:32;;;;;;;3.33;2.10;;;0.10;73.60;;;;;;5056333;28;20035;-58
2022/01/18 13:45:19;;;;;;;3.08;2.35;;;0.10;73.90;;;;;;5059261;28;20024;-57
2022/01/18 13:47:55;;;;;;;4.78;2.30;;;0.10;73.70;;;;;;5061926;28;20032;-59
2022/01/18 13:50:47;;;;;;;4.10;2.35;;;0.10;73.70;;;;;;5067257;28;20393;-58
2022/01/18 13:53:16;;;;;;;;;;;0.10;73.60;;;;;;5059781;28;20032;-58
2022/01/18 13:56:01;;;;;;;2.63;2.30;;;0.10;73.90;;;;;;5064846;28;20517;-58
2022/01/18 13:58:29;;;;;;;2.30;2.10;;;0.10;73.30;;;;;;5053277;28;20040;-60
2022/01/18 14:01:20;;;;;;;2.70;2.30;;;0.10;73.00;;;;;;5055154;28;20074;-62
2022/01/18 14:03:48;;;;;;;2.30;2.17;;;0.10;72.50;;;;;;5058201;28;20024;-59
2022/01/18 14:06:16;;;;;;;2.42;2.10;;;0.20;72.30;;;;;;5062867;28;20028;-59
2022/01/18 14:08:45;;;;;;;2.47;2.28;;;0.20;72.00;;;;;;5065196;28;20029;-59
2022/01/18 14:11:15;;;;;;;7.28;2.10;;;0.20;71.60;;;;;;5046050;28;20037;-58
2022/01/18 14:13:41;;;;;;;4.10;2.40;;;0.20;71.40;;;;;;5068645;28;20792;-57
2022/01/18 14:16:30;;;;;;;4.35;2.25;;;0.20;71.30;;;;;;5062874;28;20040;-60
2022/01/18 14:19:04;;;;;;;2.75;2.22;;;0.20;70.90;;;;;;5063480;28;20034;-58
2022/01/18 14:21:35;;;;;;;2.90;1.90;;;0.20;71.00;;;;;;5071598;28;20129;-58
2022/01/18 14:24:22;;;;;;;3.28;2.97;;;0.20;71.00;;;;;;5065060;28;20420;-56
2022/01/18 14:26:53;;;;;;;3.60;2.10;;;0.10;70.90;;;;;;5058627;28;20047;-59
2022/01/18 14:29:40;;;;;;;2.47;2.10;;;0.20;71.00;;;;;;5063803;28;20038;-60
2022/01/18 14:32:22;;;;;;;3.15;2.53;;;0.10;71.00;;;;;;5061344;28;20711;-60
2022/01/18 14:34:52;;;;;;;2.65;2.17;;;0.20;71.00;;;;;;5065708;28;20117;-60
2022/01/18 14:37:18;;;;;;;2.80;1.90;;;0.20;70.40;;;;;;5067396;28;20190;-59
2022/01/18 14:40:37;;;;;;;2.25;2.13;;;0.20;70.50;;;;;;5066163;28;20085;-58